Naniwa Maru No.7 — JD2456 — position and weather

sailwx.info

Track history (hours):
 
Tides and Currents Weather Stations Pressure Air Temp Water Temp Dewpoint Dewpoint Depression Visibility Wind Speed Wind Dir Waves Ship Positions

Naniwa Maru No.7

Last reported at 2017-Nov-19 06:59 UTC. Time now 2017-Nov-21 02:41 UTC.
Position N 34°05' E 134°58'.

Length 105 m; draft 6.5 m.

Type: Tanker. MMSI: 431000301.

Date/timePositionNaut miles runAvg speedWind from/ knotsBaromVisibWave heightAir tempDewpointWater temp
2017-Nov-19 06:59N 34°05' E 134°58'715.2
2017-Nov-19 06:30N 34°12' E 134°59'1713.6
2017-Nov-19 05:16N 34°27' E 135°08'313.8
2017-Nov-19 05:00N 34°29' E 135°11'713.1
2017-Nov-19 04:30N 34°33' E 135°17'612.4
2017-Nov-19 04:00N 34°36' E 135°24'2 2.0
2017-Nov-19 02:47N 34°35' E 135°26'0 0.0
2017-Nov-19 02:26N 34°35' E 135°26'0 0.0
2017-Nov-19 02:00N 34°35' E 135°26'0 0.0
2017-Nov-19 01:30N 34°35' E 135°26'0 0.0
2017-Nov-19 00:59N 34°35' E 135°26'0 0.0
2017-Nov-19 00:30N 34°35' E 135°26'0 0.0
2017-Nov-19 00:00N 34°35' E 135°26'0 0.0
2017-Nov-18 23:30N 34°35' E 135°26'0 0.0
2017-Nov-18 23:00N 34°35' E 135°26'3 5.9
2017-Nov-18 22:30N 34°36' E 135°23'1 1.6
2017-Nov-18 21:52N 34°35' E 135°22'0 0.0
2017-Nov-18 21:16N 34°35' E 135°22'0 0.0
2017-Nov-18 20:57N 34°35' E 135°22'0 0.0
2017-Nov-18 20:28N 34°35' E 135°22'0 0.0
2017-Nov-18 19:52N 34°35' E 135°22'0 0.0
2017-Nov-18 19:28N 34°35' E 135°22'0 0.0
2017-Nov-18 18:52N 34°35' E 135°22'0 0.1
2017-Nov-18 18:28N 34°35' E 135°22'0 0.0
2017-Nov-18 17:58N 34°35' E 135°22'0 0.0
2017-Nov-18 17:28N 34°35' E 135°22'0 0.0
2017-Nov-18 16:57N 34°35' E 135°22'0 0.0
2017-Nov-18 16:28N 34°35' E 135°22'0 0.0
2017-Nov-18 15:45N 34°35' E 135°22'0 0.0
2017-Nov-18 15:28N 34°35' E 135°22'0 0.0
2017-Nov-18 14:58N 34°35' E 135°22'0 0.0
2017-Nov-18 14:28N 34°35' E 135°22'0 1.0
2017-Nov-18 14:00N 34°35' E 135°22'713.3
2017-Nov-18 13:30N 34°35' E 135°14'715.0
2017-Nov-18 13:00N 34°35' E 135°05'612.9
2017-Nov-18 12:30N 34°36' E 134°57'1 0.0
2017-Nov-17 07:46N 34°37' E 134°57'312.7
2017-Nov-17 07:30N 34°37' E 135°02'510.6
2017-Nov-17 07:00N 34°32' E 135°05'814.0
2017-Nov-17 06:24N 34°24' E 135°02'913.0
2017-Nov-17 05:41N 34°15' E 134°59'212.6
2017-Nov-17 05:30N 34°13' E 134°60'713.4
2017-Nov-17 04:58N 34°06' E 134°59'4 0.1
2017-Nov-15 14:32N 34°02' E 134°59'016.0
2017-Nov-15 14:30N 34°03' E 134°59'816.1
2017-Nov-15 14:00N 34°10' E 134°58'916.9
2017-Nov-15 13:28N 34°20' E 134°59'715.8
2017-Nov-15 13:00N 34°27' E 135°00'815.3
2017-Nov-15 12:30N 34°34' E 135°03'611.0
2017-Nov-15 12:00N 34°36' E 134°56'1 0.0
2017-Nov-14 08:26N 34°36' E 134°55'614.9
2017-Nov-14 08:00N 34°36' E 135°03'713.2
2017-Nov-14 07:30N 34°30' E 135°04'914.8
2017-Nov-14 06:54N 34°21' E 135°01'614.3
2017-Nov-14 06:29N 34°15' E 134°59'713.9
2017-Nov-14 06:00N 34°09' E 134°59'814.2
2017-Nov-14 05:28N 34°01' E 134°59'  
2017-Nov-09 09:47N 33°59' E 134°58'415.4
2017-Nov-09 09:30N 34°04' E 134°58'715.3
2017-Nov-09 09:00N 34°11' E 134°59'1914.7
2017-Nov-09 07:44N 34°28' E 135°09'415.3
2017-Nov-09 07:29N 34°30' E 135°13'715.0
2017-Nov-09 07:00N 34°35' E 135°19'  
Track history (hours):
 
Tides and Currents Weather Stations Pressure Air Temp Water Temp Dewpoint Dewpoint Depression Visibility Wind Speed Wind Dir Waves Ship Positions

Naniwa Maru No.7

Last reported at 2017-Nov-19 06:59 UTC. Time now 2017-Nov-21 02:41 UTC.
Position N 34°05' E 134°58'.

Length 105 m; draft 6.5 m.

Type: Tanker. MMSI: 431000301.

Date/timePositionNaut miles runAvg speedWind from/ knotsBaromVisibWave heightAir tempDewpointWater temp
2017-Nov-19 06:59N 34°05' E 134°58'715.2
2017-Nov-19 06:30N 34°12' E 134°59'1713.6
2017-Nov-19 05:16N 34°27' E 135°08'313.8
2017-Nov-19 05:00N 34°29' E 135°11'713.1
2017-Nov-19 04:30N 34°33' E 135°17'612.4
2017-Nov-19 04:00N 34°36' E 135°24'2 2.0
2017-Nov-19 02:47N 34°35' E 135°26'0 0.0
2017-Nov-19 02:26N 34°35' E 135°26'0 0.0
2017-Nov-19 02:00N 34°35' E 135°26'0 0.0
2017-Nov-19 01:30N 34°35' E 135°26'0 0.0
2017-Nov-19 00:59N 34°35' E 135°26'0 0.0
2017-Nov-19 00:30N 34°35' E 135°26'0 0.0
2017-Nov-19 00:00N 34°35' E 135°26'0 0.0
2017-Nov-18 23:30N 34°35' E 135°26'0 0.0
2017-Nov-18 23:00N 34°35' E 135°26'3 5.9
2017-Nov-18 22:30N 34°36' E 135°23'1 1.6
2017-Nov-18 21:52N 34°35' E 135°22'0 0.0
2017-Nov-18 21:16N 34°35' E 135°22'0 0.0
2017-Nov-18 20:57N 34°35' E 135°22'0 0.0
2017-Nov-18 20:28N 34°35' E 135°22'0 0.0
2017-Nov-18 19:52N 34°35' E 135°22'0 0.0
2017-Nov-18 19:28N 34°35' E 135°22'0 0.0
2017-Nov-18 18:52N 34°35' E 135°22'0 0.1
2017-Nov-18 18:28N 34°35' E 135°22'0 0.0
2017-Nov-18 17:58N 34°35' E 135°22'0 0.0
2017-Nov-18 17:28N 34°35' E 135°22'0 0.0
2017-Nov-18 16:57N 34°35' E 135°22'0 0.0
2017-Nov-18 16:28N 34°35' E 135°22'0 0.0
2017-Nov-18 15:45N 34°35' E 135°22'0 0.0
2017-Nov-18 15:28N 34°35' E 135°22'0 0.0
2017-Nov-18 14:58N 34°35' E 135°22'0 0.0
2017-Nov-18 14:28N 34°35' E 135°22'0 1.0
2017-Nov-18 14:00N 34°35' E 135°22'713.3
2017-Nov-18 13:30N 34°35' E 135°14'715.0
2017-Nov-18 13:00N 34°35' E 135°05'612.9
2017-Nov-18 12:30N 34°36' E 134°57'1 0.0
2017-Nov-17 07:46N 34°37' E 134°57'312.7
2017-Nov-17 07:30N 34°37' E 135°02'510.6
2017-Nov-17 07:00N 34°32' E 135°05'814.0
2017-Nov-17 06:24N 34°24' E 135°02'913.0
2017-Nov-17 05:41N 34°15' E 134°59'212.6
2017-Nov-17 05:30N 34°13' E 134°60'713.4
2017-Nov-17 04:58N 34°06' E 134°59'4 0.1
2017-Nov-15 14:32N 34°02' E 134°59'016.0
2017-Nov-15 14:30N 34°03' E 134°59'816.1
2017-Nov-15 14:00N 34°10' E 134°58'916.9
2017-Nov-15 13:28N 34°20' E 134°59'715.8
2017-Nov-15 13:00N 34°27' E 135°00'815.3
2017-Nov-15 12:30N 34°34' E 135°03'611.0
2017-Nov-15 12:00N 34°36' E 134°56'1 0.0
2017-Nov-14 08:26N 34°36' E 134°55'614.9
2017-Nov-14 08:00N 34°36' E 135°03'713.2
2017-Nov-14 07:30N 34°30' E 135°04'914.8
2017-Nov-14 06:54N 34°21' E 135°01'614.3
2017-Nov-14 06:29N 34°15' E 134°59'713.9
2017-Nov-14 06:00N 34°09' E 134°59'814.2
2017-Nov-14 05:28N 34°01' E 134°59'  
2017-Nov-09 09:47N 33°59' E 134°58'415.4
2017-Nov-09 09:30N 34°04' E 134°58'715.3
2017-Nov-09 09:00N 34°11' E 134°59'1914.7
2017-Nov-09 07:44N 34°28' E 135°09'415.3
2017-Nov-09 07:29N 34°30' E 135°13'715.0
2017-Nov-09 07:00N 34°35' E 135°19'  

Dump ship's entire track history